createdAt,value
2023-04-15T00:10:36.344Z,0.0
2023-04-15T00:16:58.703Z,0.0
2023-04-15T00:23:19.747Z,0.0
2023-04-15T00:29:54.253Z,0.0
2023-04-15T00:38:31.313Z,0.0
2023-04-15T00:55:01.117Z,0.0
2023-04-15T01:01:24.076Z,0.0
2023-04-15T01:17:29.846Z,0.0
2023-04-15T01:23:52.311Z,0.0
2023-04-15T01:30:15.179Z,0.0
2023-04-15T01:38:24.416Z,0.0
2023-04-15T01:44:45.922Z,0.0
2023-04-15T01:54:11.859Z,0.0
2023-04-15T02:00:32.746Z,0.0
2023-04-15T02:06:54.889Z,0.0
2023-04-15T02:16:29.379Z,0.0
2023-04-15T02:22:52.061Z,0.0
2023-04-15T02:29:14.964Z,0.0
2023-04-15T02:35:35.043Z,0.0
2023-04-15T02:41:57.509Z,0.0
2023-04-15T02:48:21.323Z,0.0
2023-04-15T02:54:48.521Z,0.0
2023-04-15T03:01:10.177Z,0.0
2023-04-15T03:08:58.332Z,0.0
2023-04-15T03:15:20.931Z,0.0
2023-04-15T03:21:42.003Z,0.0
2023-04-15T03:33:42.270Z,0.0
2023-04-15T03:40:03.818Z,0.0
2023-04-15T03:46:26.311Z,0.0
2023-04-15T03:52:51.405Z,0.0
2023-04-15T03:59:16.672Z,0.0
2023-04-15T04:05:39.182Z,0.0
2023-04-15T04:18:19.300Z,0.0
2023-04-15T04:24:40.241Z,0.0
2023-04-15T04:40:50.385Z,0.0
2023-04-15T04:47:11.361Z,0.0
2023-04-15T04:53:32.074Z,0.0
2023-04-15T04:59:55.924Z,3.2909698996655528
2023-04-15T05:12:50.037Z,2.944715719063543
2023-04-15T05:22:53.832Z,3.164113712374582
2023-04-15T05:44:00.617Z,5.452040133779267
2023-04-15T05:53:20.551Z,7.047525083612042
2023-04-15T05:59:48.639Z,8.364013377926424
2023-04-15T06:13:10.896Z,10.689130434782614
2023-04-15T06:25:56.000Z,16.231973244147152
2023-04-15T06:36:45.706Z,12.374949832775922
2023-04-15T06:43:51.197Z,14.085852842809361
2023-04-15T06:50:53.113Z,16.647023411371233
2023-04-15T06:57:46.380Z,16.41036789297659
2023-04-15T07:07:07.065Z,17.0747491638796
2023-04-15T07:13:28.497Z,20.039431438127078
2023-04-15T07:19:50.288Z,23.621638795986623
2023-04-15T07:26:12.273Z,30.383411371237457
2023-04-15T07:37:40.581Z,31.86434782608696
2023-04-15T07:44:02.694Z,31.45919732441473
2023-04-15T07:50:27.402Z,40.55558528428097
2023-04-15T07:56:51.265Z,45.462709030100314
2023-04-15T08:03:13.628Z,46.02060200668896
2023-04-15T08:09:36.282Z,37.88056856187291
2023-04-15T08:21:41.407Z,25.421839464882925
2023-04-15T08:28:05.493Z,26.77113712374582
2023-04-15T08:34:28.440Z,23.450836120401334
2023-04-15T08:40:52.403Z,32.10702341137124
2023-04-15T08:47:15.558Z,38.363277591973244
2023-04-15T08:53:38.340Z,37.722909698996645
2023-04-15T09:00:04.824Z,29.82498327759198
2023-04-15T09:06:31.480Z,40.19729096989967
2023-04-15T09:17:52.040Z,25.813377926421406
2023-04-15T09:26:03.149Z,35.666555183946464
2023-04-15T09:32:28.629Z,39.25441471571905
2023-04-15T09:47:10.885Z,28.517190635451534
2023-04-15T10:00:29.175Z,30.03742474916385
2023-04-15T10:06:49.758Z,34.7436789297659
2023-04-15T10:13:10.117Z,43.35725752508362
2023-04-15T10:19:31.624Z,51.085752508361196
2023-04-15T10:25:58.667Z,49.229397993311046
2023-04-15T10:32:19.630Z,46.26926421404683
2023-04-15T10:38:40.856Z,47.7728093645485
2023-04-15T10:53:23.084Z,47.51595317725754
2023-04-15T10:59:44.416Z,40.21448160535118
2023-04-15T11:06:05.606Z,41.930535117056806
2023-04-15T11:20:04.803Z,47.54729096989966
2023-04-15T11:26:25.624Z,47.83451505016724
2023-04-15T11:32:47.125Z,41.77505016722407
2023-04-15T11:45:22.814Z,39.538127090301
2023-04-15T11:51:43.809Z,40.441605351170544
2023-04-15T11:58:05.198Z,41.000334448160544
2023-04-15T12:04:26.322Z,41.9672575250836
2023-04-15T12:10:47.824Z,40.031070234113706
2023-04-15T12:17:09.478Z,33.448896321070215
2023-04-15T12:23:30.473Z,32.58585284280937
2023-04-15T12:35:07.331Z,38.754816053511696
2023-04-15T12:41:28.847Z,36.94702341137124
2023-04-15T12:47:50.430Z,40.412073578595304
2023-04-15T12:59:14.657Z,41.7171906354515
2023-04-15T13:10:04.312Z,37.735250836120436
2023-04-15T13:16:26.668Z,51.43531772575251
2023-04-15T13:22:48.775Z,63.72301003344483
2023-04-15T13:29:10.639Z,170.0101672240804
2023-04-15T13:40:42.612Z,223.453745819398
2023-04-15T14:02:59.443Z,124.98488294314383
2023-04-15T14:09:21.352Z,137.07822742474917
2023-04-15T14:15:43.242Z,118.40254180602
2023-04-15T14:24:29.762Z,149.41140468227425
2023-04-15T14:30:51.511Z,124.82926421404682
2023-04-15T14:39:47.648Z,105.46525083612043
2023-04-15T14:46:13.230Z,139.95133779264225
2023-04-15T14:52:40.288Z,121.35153846153851
2023-04-15T14:59:09.621Z,119.02749163879587
2023-04-15T15:12:14.905Z,109.98244147157189
2023-04-15T15:18:40.900Z,109.37926421404681
2023-04-15T15:29:53.638Z,36.45993311036788
2023-04-15T15:36:16.333Z,48.25040133779264
2023-04-15T15:42:38.752Z,81.2642474916388
2023-04-15T15:49:04.108Z,73.75290969899662
2023-04-15T15:55:27.896Z,43.91792642140467
2023-04-15T16:01:50.878Z,28.73096989966555
2023-04-15T16:08:13.499Z,21.075484949832774
2023-04-15T16:14:36.926Z,22.1423745819398
2023-04-15T16:21:03.628Z,15.443812709030096
2023-04-15T16:28:26.470Z,18.14020066889632
2023-04-15T16:38:09.113Z,22.63889632107023
2023-04-15T16:45:42.541Z,15.596923076923073
2023-04-15T16:58:00.946Z,14.505785953177265
2023-04-15T17:06:53.915Z,18.13311036789298
2023-04-15T17:14:00.979Z,12.373612040133771
2023-04-15T17:20:32.658Z,9.628160535117056
2023-04-15T17:27:02.640Z,11.881337792642144
2023-04-15T17:34:01.059Z,10.763210702341137
2023-04-15T17:40:28.965Z,6.593010033444811
2023-04-15T17:47:08.819Z,6.368762541806018
2023-04-15T18:02:03.099Z,3.8926421404682294
2023-04-15T18:08:26.297Z,2.1906354515050155
2023-04-15T18:14:55.079Z,1.336688963210702
2023-04-15T18:21:21.667Z,0.2745819397993311
2023-04-15T18:29:01.969Z,0.0
2023-04-15T18:35:30.165Z,0.0
2023-04-15T18:45:51.553Z,0.0
2023-04-15T18:52:16.135Z,0.0
2023-04-15T18:59:10.248Z,0.0
2023-04-15T19:05:57.315Z,0.0
2023-04-15T19:12:21.690Z,0.0
2023-04-15T19:18:48.404Z,0.0
2023-04-15T19:25:12.375Z,0.0
2023-04-15T19:31:37.201Z,0.0
2023-04-15T19:45:03.357Z,0.0
2023-04-15T19:51:30.002Z,0.0
2023-04-15T19:59:46.191Z,0.0
2023-04-15T20:08:09.433Z,0.0
2023-04-15T20:15:19.484Z,0.0
2023-04-15T20:21:47.723Z,0.0
2023-04-15T20:28:19.791Z,0.0
2023-04-15T20:34:40.890Z,0.0
2023-04-15T20:43:44.890Z,0.0
2023-04-15T20:50:09.264Z,0.0
2023-04-15T20:56:33.860Z,0.0
2023-04-15T21:07:36.563Z,0.0
2023-04-15T21:14:01.263Z,0.0
2023-04-15T21:20:24.922Z,0.0
2023-04-15T21:26:46.461Z,0.0
2023-04-15T21:39:12.507Z,0.0
2023-04-15T21:45:35.370Z,0.0
2023-04-15T21:51:55.371Z,0.0
2023-04-15T21:58:15.370Z,0.0
2023-04-15T22:04:35.564Z,0.0
2023-04-15T22:15:41.654Z,0.0
2023-04-15T22:24:52.691Z,0.0
2023-04-15T22:31:11.873Z,0.0
2023-04-15T22:38:12.958Z,0.0
2023-04-15T22:46:28.073Z,0.0
2023-04-15T22:52:48.417Z,0.0
2023-04-15T23:01:25.531Z,0.0
2023-04-15T23:07:44.815Z,0.0
2023-04-15T23:14:04.658Z,0.0
2023-04-15T23:20:25.207Z,0.0
2023-04-15T23:28:51.899Z,0.0
2023-04-15T23:40:41.351Z,0.0
2023-04-15T23:47:03.760Z,0.0
2023-04-15T23:53:25.453Z,0.0
2023-04-15T23:59:49.359Z,0.0
